Terminal Aerodrome Forecast
Issued by NWS

Home | Current Version | Previous Version | Text Only | Print | Product List | Glossary On
Versions: 1 2 3 4 5 6 7 8 9 10 11 12 13 14 15 16 17 18 19 20 21 22 23 24 25 26 27 28 29 30 31 32 33 34 35 36
000
FTUS43 KDDC 230219 AAA
TAFHYS
TAF AMD
KHYS 230219Z 2302/2324 14010KT 6SM BR SCT005 OVC016
     FM230400 16010KT 4SM BR OVC004
      TEMPO 2309/2312 2SM -DZ BR
     FM231500 15021G28KT 4SM BR OVC007=

USA.gov is the U.S. government's official web portal to all federal, state and local government web resources and services.